Time;durP1;ratioP1;P1;durP2;ratioP2;P2;SDS_P1;SDS_P2;PMS_P1;PMS_P2;Temp;Humidity;BMP_temperature;BMP_pressure;BME280_temperature;BME280_humidity;BME280_pressure;Samples;Min_cycle;Max_cycle;Signal;HPM_P1;HPM_P2
2023/09/07 00:00:13;;;;;;;2.45;2.15;;;20.00;99.90;;;;;;7390449;19;20138;-78
2023/09/07 00:02:40;;;;;;;2.88;2.00;;;20.20;99.90;;;;;;7390712;19;20135;-78
2023/09/07 00:05:07;;;;;;;3.15;2.30;;;20.20;99.90;;;;;;7387476;19;20154;-79
2023/09/07 00:07:33;;;;;;;2.58;2.13;;;20.00;99.90;;;;;;7386849;19;20159;-78
2023/09/07 00:09:59;;;;;;;3.20;2.40;;;19.90;99.90;;;;;;7387857;19;20157;-77
2023/09/07 00:12:26;;;;;;;3.35;2.25;;;19.80;99.90;;;;;;7387309;19;20131;-78
2023/09/07 00:14:54;;;;;;;2.80;2.13;;;19.80;99.90;;;;;;7385300;19;20565;-77
2023/09/07 00:17:21;;;;;;;3.30;2.13;;;19.90;99.90;;;;;;7387953;19;20149;-79
2023/09/07 00:19:49;;;;;;;2.60;1.90;;;19.60;99.90;;;;;;7387259;19;20139;-78
2023/09/07 00:22:16;;;;;;;2.70;2.25;;;19.40;99.90;;;;;;7390784;19;20143;-80
2023/09/07 00:24:42;;;;;;;2.97;2.25;;;19.40;99.90;;;;;;7389351;19;20154;-78
2023/09/07 00:27:08;;;;;;;4.80;2.40;;;19.40;99.90;;;;;;7388552;19;20147;-79
2023/09/07 00:29:35;;;;;;;3.17;2.35;;;19.40;99.90;;;;;;7390157;19;20472;-78
2023/09/07 00:32:01;;;;;;;3.45;2.65;;;19.30;99.90;;;;;;7391081;19;20222;-78
2023/09/07 00:34:27;;;;;;;3.58;2.25;;;19.10;99.90;;;;;;7383084;19;20595;-77
2023/09/07 00:36:53;;;;;;;3.00;2.53;;;19.00;99.90;;;;;;7387279;19;20139;-78
2023/09/07 00:39:18;;;;;;;4.95;2.22;;;19.20;99.90;;;;;;7387766;19;20138;-78
2023/09/07 00:41:44;;;;;;;3.88;2.70;;;19.20;99.90;;;;;;7390110;19;20554;-78
2023/09/07 00:44:10;;;;;;;3.17;2.65;;;19.20;99.90;;;;;;7385771;19;20127;-80
2023/09/07 00:46:36;;;;;;;3.88;2.80;;;19.10;99.90;;;;;;7387353;19;20906;-79
2023/09/07 00:49:04;;;;;;;3.88;2.72;;;19.20;99.90;;;;;;7386548;19;20138;-79
2023/09/07 00:51:30;;;;;;;5.10;3.35;;;19.10;99.90;;;;;;7389431;19;20169;-78
2023/09/07 00:53:57;;;;;;;3.92;2.72;;;19.00;99.90;;;;;;7386296;19;20198;-79
2023/09/07 00:56:25;;;;;;;4.88;2.70;;;19.00;99.90;;;;;;7388676;19;20138;-78
2023/09/07 00:58:54;;;;;;;5.80;3.47;;;19.00;99.90;;;;;;7389353;19;20138;-78
2023/09/07 01:01:23;;;;;;;4.78;2.90;;;18.90;99.90;;;;;;7386081;19;20151;-79
2023/09/07 01:03:50;;;;;;;4.70;3.05;;;18.80;99.90;;;;;;7387723;19;20142;-76
2023/09/07 01:06:19;;;;;;;4.75;2.92;;;18.80;99.90;;;;;;7387713;19;20448;-78
2023/09/07 01:08:51;;;;;;;4.70;2.90;;;18.80;99.90;;;;;;7389633;19;20142;-78
2023/09/07 01:11:26;;;;;;;3.00;2.67;;;18.80;99.90;;;;;;7385847;19;20218;-77
2023/09/07 01:13:53;;;;;;;3.92;2.90;;;18.70;99.90;;;;;;7388101;19;20134;-78
2023/09/07 01:16:21;;;;;;;6.00;3.33;;;18.80;99.90;;;;;;7388070;19;20134;-77
2023/09/07 01:18:47;;;;;;;4.38;2.92;;;19.20;99.90;;;;;;7387433;19;20158;-78
2023/09/07 01:21:14;;;;;;;3.58;2.75;;;19.50;99.90;;;;;;7387670;19;20210;-78
2023/09/07 01:23:41;;;;;;;3.65;2.95;;;19.60;99.90;;;;;;7386234;19;20149;-77
2023/09/07 01:26:08;;;;;;;3.90;2.78;;;19.40;99.90;;;;;;7387335;19;20246;-78
2023/09/07 01:28:35;;;;;;;3.50;2.65;;;19.30;99.90;;;;;;7388502;19;20134;-78
2023/09/07 01:31:04;;;;;;;3.22;2.70;;;19.10;99.90;;;;;;7388886;19;20139;-78
2023/09/07 01:33:30;;;;;;;5.32;2.65;;;18.80;99.90;;;;;;7385646;19;20165;-80
2023/09/07 01:35:56;;;;;;;5.20;3.03;;;18.80;99.90;;;;;;7387897;19;20135;-79
2023/09/07 01:38:22;;;;;;;4.10;2.83;;;18.70;99.90;;;;;;7386244;19;20139;-77
2023/09/07 01:40:47;;;;;;;3.03;2.55;;;18.70;99.90;;;;;;7386950;19;20138;-77
2023/09/07 01:43:13;;;;;;;6.25;2.45;;;18.70;99.90;;;;;;7385982;19;20241;-78
2023/09/07 01:45:39;;;;;;;3.80;2.85;;;18.70;99.90;;;;;;7388443;19;20170;-79
2023/09/07 01:48:10;;;;;;;2.92;2.53;;;18.70;99.90;;;;;;7387046;19;20849;-80
2023/09/07 01:50:36;;;;;;;5.95;2.70;;;19.10;99.90;;;;;;7387026;19;20150;-80
2023/09/07 01:53:04;;;;;;;3.58;2.88;;;19.00;99.90;;;;;;7386243;19;20146;-80
2023/09/07 01:55:30;;;;;;;4.85;2.53;;;19.30;99.90;;;;;;7386161;19;20477;-76
2023/09/07 01:57:57;;;;;;;3.15;2.53;;;19.30;99.90;;;;;;7385993;19;20142;-77
2023/09/07 02:00:22;;;;;;;2.88;2.58;;;19.30;99.90;;;;;;7386654;19;20609;-78
2023/09/07 02:02:48;;;;;;;3.47;2.70;;;19.10;99.90;;;;;;7385324;19;20142;-78
2023/09/07 02:05:14;;;;;;;5.22;2.60;;;18.90;99.90;;;;;;7381859;19;20601;-77
2023/09/07 02:07:39;;;;;;;2.97;2.60;;;18.60;99.90;;;;;;7385284;19;20142;-78
2023/09/07 02:10:06;;;;;;;2.67;2.47;;;18.50;99.90;;;;;;7385832;19;20143;-76
2023/09/07 02:12:32;;;;;;;2.67;2.47;;;18.20;99.90;;;;;;7385173;19;20662;-78
2023/09/07 02:15:02;;;;;;;3.58;2.20;;;18.10;99.90;;;;;;7381624;19;20163;-77
2023/09/07 02:17:28;;;;;;;3.78;2.45;;;18.00;99.90;;;;;;7378491;19;20163;-76
2023/09/07 02:19:54;;;;;;;2.75;2.40;;;18.20;99.90;;;;;;7385696;19;20134;-77
2023/09/07 02:22:20;;;;;;;3.33;2.22;;;18.30;99.90;;;;;;7384223;19;20155;-76
2023/09/07 02:24:48;;;;;;;3.67;2.63;;;18.50;99.90;;;;;;7387684;19;20138;-77
2023/09/07 02:27:14;;;;;;;3.42;2.80;;;18.50;99.90;;;;;;7387880;19;20217;-76
2023/09/07 02:29:40;;;;;;;3.08;2.30;;;18.70;99.90;;;;;;7386409;19;20150;-75
2023/09/07 02:32:06;;;;;;;6.25;2.70;;;18.80;99.90;;;;;;7390449;19;20154;-76
2023/09/07 02:34:36;;;;;;;2.92;2.60;;;18.60;99.90;;;;;;7391167;19;20214;-76
2023/09/07 02:37:05;;;;;;;4.35;2.97;;;18.30;99.90;;;;;;7393215;19;20141;-78
2023/09/07 02:39:30;;;;;;;3.75;2.70;;;18.30;99.90;;;;;;7393738;19;20623;-75
2023/09/07 02:41:56;;;;;;;7.22;3.00;;;18.20;99.90;;;;;;7392791;19;20138;-77
2023/09/07 02:44:23;;;;;;;4.53;2.78;;;18.30;99.90;;;;;;7390537;19;20163;-77
2023/09/07 02:46:49;;;;;;;4.93;3.03;;;18.10;99.90;;;;;;7385143;19;20182;-76
2023/09/07 02:49:15;;;;;;;5.05;2.88;;;17.90;99.90;;;;;;7393448;19;20151;-76
2023/09/07 02:51:40;;;;;;;4.90;2.72;;;18.10;99.90;;;;;;7390839;19;20619;-75
2023/09/07 02:54:06;;;;;;;5.57;2.70;;;18.40;99.90;;;;;;7391283;19;20165;-76
2023/09/07 02:56:32;;;;;;;3.40;2.63;;;18.40;99.90;;;;;;7388180;19;20143;-77
2023/09/07 02:58:58;;;;;;;5.20;2.90;;;18.60;99.90;;;;;;7392576;19;20238;-76
2023/09/07 03:01:23;;;;;;;4.85;3.05;;;18.80;99.90;;;;;;7389876;19;20194;-77
2023/09/07 03:03:51;;;;;;;4.30;2.67;;;18.60;99.90;;;;;;7390654;19;20146;-77
2023/09/07 03:06:18;;;;;;;3.42;2.90;;;18.60;99.90;;;;;;7390298;19;20126;-77
2023/09/07 03:08:44;;;;;;;3.63;2.70;;;18.40;99.90;;;;;;7392989;19;20138;-78
2023/09/07 03:11:10;;;;;;;4.35;3.03;;;18.40;99.90;;;;;;7391361;19;20230;-78
2023/09/07 03:13:36;;;;;;;4.03;3.10;;;18.50;99.90;;;;;;7390806;19;20145;-77
2023/09/07 03:16:03;;;;;;;6.07;3.22;;;18.80;99.90;;;;;;7392679;19;20583;-79
2023/09/07 03:18:29;;;;;;;5.32;3.10;;;18.70;99.90;;;;;;7392756;19;20138;-77
2023/09/07 03:20:58;;;;;;;3.75;2.90;;;18.70;99.90;;;;;;7390279;19;20229;-77
2023/09/07 03:23:23;;;;;;;5.38;2.85;;;19.00;99.90;;;;;;7388331;19;20150;-77
2023/09/07 03:25:49;;;;;;;5.40;2.90;;;18.70;99.90;;;;;;7392107;19;20131;-78
2023/09/07 03:28:15;;;;;;;4.35;3.38;;;18.60;99.90;;;;;;7390265;19;20564;-78
2023/09/07 03:30:41;;;;;;;4.57;3.10;;;18.30;99.90;;;;;;7392693;19;20155;-78
2023/09/07 03:33:06;;;;;;;5.28;2.90;;;18.50;99.90;;;;;;7390350;19;20135;-77
2023/09/07 03:35:33;;;;;;;7.07;3.10;;;18.60;99.90;;;;;;7390379;19;20227;-78
2023/09/07 03:37:59;;;;;;;5.30;3.20;;;18.60;99.90;;;;;;7390549;19;20855;-78
2023/09/07 03:40:24;;;;;;;5.53;3.17;;;18.80;99.90;;;;;;7391584;19;20233;-79
2023/09/07 03:42:50;;;;;;;4.75;3.33;;;18.90;99.90;;;;;;7390093;19;20568;-76
2023/09/07 03:45:17;;;;;;;5.05;3.03;;;19.00;99.90;;;;;;7391769;19;20232;-77
2023/09/07 03:47:44;;;;;;;4.75;2.83;;;19.00;99.90;;;;;;7390159;19;20152;-77
2023/09/07 03:50:10;;;;;;;6.32;3.63;;;19.00;99.90;;;;;;7392272;19;20207;-78
2023/09/07 03:52:36;;;;;;;3.63;3.05;;;18.90;99.90;;;;;;7389104;19;20569;-77
2023/09/07 03:55:02;;;;;;;3.95;3.08;;;18.90;99.90;;;;;;7388789;19;20142;-78
2023/09/07 03:57:28;;;;;;;4.90;2.50;;;18.60;99.90;;;;;;7388990;19;20142;-78
2023/09/07 03:59:56;;;;;;;3.60;2.75;;;18.60;99.90;;;;;;7390579;19;20127;-77
2023/09/07 04:02:22;;;;;;;5.53;2.90;;;18.20;99.90;;;;;;7387865;19;20604;-77
2023/09/07 04:04:49;;;;;;;3.20;2.50;;;18.10;99.90;;;;;;7389398;19;20146;-77
2023/09/07 04:07:15;;;;;;;4.00;2.70;;;17.70;99.90;;;;;;7388901;19;20510;-76
2023/09/07 04:09:40;;;;;;;3.35;2.70;;;17.80;99.90;;;;;;7391361;19;20145;-78
2023/09/07 04:12:07;;;;;;;5.20;3.00;;;17.90;99.90;;;;;;7388472;19;20135;-78
2023/09/07 04:14:32;;;;;;;3.05;2.60;;;17.90;99.90;;;;;;7386123;19;20607;-79
2023/09/07 04:16:58;;;;;;;3.97;2.70;;;17.90;99.90;;;;;;7390878;19;20134;-73
2023/09/07 04:19:24;;;;;;;3.83;3.15;;;17.80;99.90;;;;;;7388342;19;20485;-74
2023/09/07 04:21:51;;;;;;;4.32;3.00;;;18.10;99.90;;;;;;7389435;19;20147;-73
2023/09/07 04:24:17;;;;;;;3.45;2.80;;;18.20;99.90;;;;;;7387863;19;20138;-73
2023/09/07 04:26:43;;;;;;;3.13;2.83;;;18.00;99.90;;;;;;7390021;19;20130;-73
2023/09/07 04:29:09;;;;;;;4.40;3.10;;;17.80;99.90;;;;;;7389198;19;20245;-74
2023/09/07 04:31:35;;;;;;;3.95;2.83;;;18.00;99.90;;;;;;7388122;19;20194;-73
2023/09/07 04:34:02;;;;;;;4.55;2.90;;;17.70;99.90;;;;;;7386124;19;20138;-72
2023/09/07 04:36:28;;;;;;;4.03;3.63;;;17.60;99.90;;;;;;7390464;19;20134;-74
2023/09/07 04:38:54;;;;;;;3.90;3.15;;;17.40;99.90;;;;;;7391401;19;20256;-74
2023/09/07 04:41:20;;;;;;;4.68;3.10;;;17.10;99.90;;;;;;7386254;19;20154;-73
2023/09/07 04:43:45;;;;;;;5.55;3.75;;;17.00;99.90;;;;;;7387681;19;20142;-74
2023/09/07 04:46:13;;;;;;;4.53;3.20;;;17.00;99.90;;;;;;7386761;19;20151;-74
2023/09/07 04:48:41;;;;;;;5.80;3.70;;;17.00;99.90;;;;;;7387598;19;20438;-74
2023/09/07 04:51:07;;;;;;;4.95;3.28;;;17.40;99.90;;;;;;7387590;19;20154;-74
2023/09/07 04:53:35;;;;;;;4.93;3.70;;;17.90;99.90;;;;;;7386571;19;20142;-74
2023/09/07 04:56:02;;;;;;;4.35;3.60;;;17.90;99.90;;;;;;7386550;19;20169;-74
2023/09/07 04:58:28;;;;;;;4.25;3.63;;;17.80;99.90;;;;;;7388788;19;20138;-74
2023/09/07 05:00:54;;;;;;;6.50;3.65;;;18.10;99.90;;;;;;7386884;19;20153;-74
2023/09/07 05:03:19;;;;;;;5.57;4.28;;;18.30;99.90;;;;;;7388542;19;20130;-73
2023/09/07 05:05:53;;;;;;;4.38;3.42;;;18.40;99.90;;;;;;7384454;19;20169;-73
2023/09/07 05:08:20;;;;;;;8.23;4.15;;;18.20;99.90;;;;;;7386970;19;20226;-73
2023/09/07 05:10:45;;;;;;;5.15;3.75;;;17.90;99.90;;;;;;7388811;19;20226;-73
2023/09/07 05:13:11;;;;;;;4.22;3.22;;;17.90;99.90;;;;;;7389345;19;20168;-73
2023/09/07 05:15:37;;;;;;;3.53;3.00;;;17.90;99.90;;;;;;7387385;19;20138;-74
2023/09/07 05:18:03;;;;;;;4.55;3.85;;;17.70;99.90;;;;;;7387835;19;20563;-74
2023/09/07 05:20:31;;;;;;;5.63;3.72;;;18.10;99.90;;;;;;7386720;19;20158;-73
2023/09/07 05:22:59;;;;;;;6.05;4.40;;;18.30;99.90;;;;;;7387754;19;20173;-74
2023/09/07 05:25:25;;;;;;;5.88;4.00;;;18.00;99.90;;;;;;7389266;19;20153;-74
2023/09/07 05:27:51;;;;;;;5.82;3.90;;;17.90;99.90;;;;;;7388584;19;20449;-74
2023/09/07 05:30:17;;;;;;;7.00;3.83;;;18.10;99.90;;;;;;7386966;19;20134;-73
2023/09/07 05:32:42;;;;;;;4.47;3.75;;;18.20;99.90;;;;;;7384603;19;20142;-74
2023/09/07 05:35:10;;;;;;;5.97;4.05;;;18.10;99.90;;;;;;7384040;19;20631;-75
2023/09/07 05:37:36;;;;;;;6.07;3.92;;;17.90;99.90;;;;;;7383715;19;20146;-74
2023/09/07 05:40:03;;;;;;;7.63;3.78;;;18.00;99.90;;;;;;7389760;19;20927;-73
2023/09/07 05:42:29;;;;;;;7.70;4.00;;;18.10;99.90;;;;;;7382161;19;20150;-74
2023/09/07 05:44:54;;;;;;;5.75;4.15;;;18.30;99.90;;;;;;7385416;19;20146;-75
2023/09/07 05:47:20;;;;;;;8.93;4.60;;;18.40;99.90;;;;;;7385011;19;20146;-75
2023/09/07 05:49:46;;;;;;;9.38;4.38;;;18.50;99.90;;;;;;7386758;19;20155;-76
2023/09/07 05:52:12;;;;;;;5.97;4.15;;;18.50;99.90;;;;;;7387439;19;20147;-75
2023/09/07 05:54:38;;;;;;;6.68;4.45;;;18.20;99.90;;;;;;7384650;19;20131;-75
2023/09/07 05:57:04;;;;;;;7.03;3.72;;;18.00;99.90;;;;;;7375304;19;20518;-75
2023/09/07 05:59:31;;;;;;;5.93;4.15;;;17.80;99.90;;;;;;7383371;19;20127;-74
2023/09/07 06:01:57;;;;;;;5.97;3.63;;;18.10;99.90;;;;;;7386217;19;20154;-75
2023/09/07 06:04:23;;;;;;;6.00;3.90;;;18.30;99.90;;;;;;7376809;19;20180;-75
2023/09/07 06:06:48;;;;;;;6.82;3.88;;;18.50;99.90;;;;;;7380456;19;20155;-75
2023/09/07 06:09:14;;;;;;;8.95;4.40;;;18.30;99.90;;;;;;7390553;19;20555;-75
2023/09/07 06:11:40;;;;;;;6.88;4.43;;;18.50;99.90;;;;;;7387338;19;20844;-75
2023/09/07 06:14:06;;;;;;;6.55;4.35;;;18.20;99.90;;;;;;7390654;19;20596;-75
2023/09/07 06:16:31;;;;;;;5.80;4.57;;;18.00;99.90;;;;;;7388746;19;20137;-75
2023/09/07 06:18:58;;;;;;;6.22;4.35;;;18.30;99.90;;;;;;7390662;19;20126;-75
2023/09/07 06:21:24;;;;;;;5.68;4.53;;;18.50;99.90;;;;;;7392207;19;20134;-75
2023/09/07 06:23:50;;;;;;;7.65;4.22;;;18.40;99.90;;;;;;7389358;19;20133;-76
2023/09/07 06:26:17;;;;;;;6.30;4.78;;;18.60;99.90;;;;;;7378897;19;20225;-75
2023/09/07 06:28:43;;;;;;;6.05;4.95;;;18.60;99.90;;;;;;7389984;19;20142;-76
2023/09/07 06:31:09;;;;;;;11.98;9.48;;;18.60;99.90;;;;;;7382463;19;20150;-75
2023/09/07 06:33:34;;;;;;;8.25;5.15;;;18.60;99.90;;;;;;7389818;19;20130;-75
2023/09/07 06:36:03;;;;;;;8.85;4.68;;;18.60;99.90;;;;;;7387215;19;20895;-73
2023/09/07 06:38:29;;;;;;;5.38;4.38;;;18.80;99.90;;;;;;7387910;19;20205;-73
2023/09/07 06:40:55;;;;;;;6.95;4.90;;;18.80;99.90;;;;;;7391157;19;20179;-73
2023/09/07 06:43:21;;;;;;;7.28;5.00;;;18.80;99.90;;;;;;7390120;19;20476;-73
2023/09/07 06:45:46;;;;;;;7.82;4.68;;;18.80;99.90;;;;;;7391084;19;20160;-73
2023/09/07 06:48:12;;;;;;;7.63;4.75;;;18.80;99.90;;;;;;7393340;19;20213;-73
2023/09/07 06:50:38;;;;;;;6.70;5.47;;;18.70;99.90;;;;;;7390159;19;20130;-74
2023/09/07 06:53:04;;;;;;;7.82;5.35;;;18.70;99.90;;;;;;7389538;19;20134;-73
2023/09/07 06:55:30;;;;;;;10.13;6.53;;;18.70;99.90;;;;;;7391084;19;20138;-74
2023/09/07 06:57:55;;;;;;;14.88;6.63;;;18.80;99.90;;;;;;7389681;19;20146;-72
2023/09/07 07:00:21;;;;;;;11.65;6.93;;;18.90;99.90;;;;;;7388152;19;20482;-73
2023/09/07 07:02:47;;;;;;;10.70;6.63;;;18.80;99.90;;;;;;7389527;19;20131;-74
2023/09/07 07:05:13;;;;;;;8.90;6.55;;;18.90;99.90;;;;;;7386895;19;20178;-73
2023/09/07 07:07:39;;;;;;;10.88;5.85;;;18.90;99.90;;;;;;7390508;19;20130;-73
2023/09/07 07:10:06;;;;;;;7.18;5.43;;;19.00;99.90;;;;;;7391607;19;20261;-72
2023/09/07 07:12:34;;;;;;;8.43;6.10;;;19.00;99.90;;;;;;7392757;19;20477;-73
2023/09/07 07:15:01;;;;;;;8.95;5.57;;;19.10;99.90;;;;;;7386900;19;20260;-73
2023/09/07 07:17:27;;;;;;;9.95;6.03;;;19.20;99.90;;;;;;7389478;19;20169;-73
2023/09/07 07:19:53;;;;;;;12.30;5.90;;;19.20;99.90;;;;;;7385844;19;20595;-73
2023/09/07 07:22:19;;;;;;;9.25;6.40;;;19.30;99.90;;;;;;7388461;19;20155;-73
2023/09/07 07:24:45;;;;;;;10.88;6.30;;;19.30;99.90;;;;;;7380661;19;20496;-74
2023/09/07 07:27:11;;;;;;;11.73;6.05;;;19.50;99.90;;;;;;7389269;19;20171;-73
2023/09/07 07:29:37;;;;;;;9.15;5.68;;;19.60;99.90;;;;;;7387286;19;20143;-71
2023/09/07 07:32:03;;;;;;;8.38;5.15;;;19.70;99.90;;;;;;7390007;19;20719;-72
2023/09/07 07:34:29;;;;;;;11.80;5.30;;;19.80;99.90;;;;;;7387003;19;20146;-72
2023/09/07 07:36:57;;;;;;;9.35;5.78;;;19.80;99.90;;;;;;7390110;19;20234;-73
2023/09/07 07:39:23;;;;;;;9.52;5.53;;;19.90;99.90;;;;;;7386657;19;20630;-72
2023/09/07 07:41:48;;;;;;;9.35;4.70;;;20.00;99.90;;;;;;7390300;19;20145;-74
2023/09/07 07:44:14;;;;;;;7.80;5.05;;;20.00;99.90;;;;;;7383195;19;20154;-73
2023/09/07 07:46:40;;;;;;;12.20;5.05;;;20.20;99.90;;;;;;7390323;19;20222;-73
2023/09/07 07:49:06;;;;;;;7.50;4.30;;;20.40;99.90;;;;;;7387657;19;21088;-72
2023/09/07 07:51:32;;;;;;;6.93;5.15;;;20.60;99.90;;;;;;7389938;19;20571;-73
2023/09/07 07:53:57;;;;;;;6.60;4.15;;;20.90;99.90;;;;;;7385399;19;20493;-72
2023/09/07 07:56:24;;;;;;;9.10;5.28;;;21.30;99.90;;;;;;7389155;19;20138;-70
2023/09/07 07:58:50;;;;;;;7.95;4.68;;;21.90;99.90;;;;;;7389207;19;20989;-72
2023/09/07 08:01:17;;;;;;;12.40;5.78;;;22.40;99.90;;;;;;7385905;19;20151;-72
2023/09/07 08:03:43;;;;;;;9.00;4.40;;;22.90;99.90;;;;;;7388400;19;20330;-70
2023/09/07 08:06:10;;;;;;;8.63;4.80;;;23.00;99.90;;;;;;7388223;19;20579;-70
2023/09/07 08:08:36;;;;;;;11.35;4.30;;;23.10;99.90;;;;;;7388258;19;20134;-71
2023/09/07 08:11:05;;;;;;;7.13;4.18;;;23.00;99.90;;;;;;7387554;19;20154;-71
2023/09/07 08:13:34;;;;;;;6.93;4.10;;;22.90;99.90;;;;;;7388534;19;20138;-70
2023/09/07 08:16:03;;;;;;;8.43;4.10;;;22.80;99.90;;;;;;7387684;19;20571;-72
2023/09/07 08:18:31;;;;;;;5.55;3.83;;;22.60;99.90;;;;;;7387869;19;20133;-70
2023/09/07 08:20:58;;;;;;;5.45;4.25;;;22.60;99.90;;;;;;7387907;19;20150;-70
2023/09/07 08:23:24;;;;;;;5.45;3.95;;;22.70;99.90;;;;;;7387870;19;20157;-72
2023/09/07 08:25:54;;;;;;;4.63;3.78;;;22.90;99.90;;;;;;7389019;19;20222;-72
2023/09/07 08:28:22;;;;;;;3.85;3.47;;;23.00;99.90;;;;;;7389721;19;20131;-71
2023/09/07 08:30:54;;;;;;;10.38;4.88;;;23.20;99.90;;;;;;7385191;19;20135;-70
2023/09/07 08:33:23;;;;;;;4.38;3.70;;;23.30;99.90;;;;;;7385855;19;20147;-71
2023/09/07 08:35:55;;;;;;;6.65;3.72;;;23.30;99.90;;;;;;7388126;19;20207;-71
2023/09/07 08:38:24;;;;;;;6.20;3.90;;;23.10;99.90;;;;;;7390446;19;20722;-71
2023/09/07 08:40:52;;;;;;;4.63;3.60;;;23.10;99.90;;;;;;7386879;19;20195;-71
2023/09/07 08:43:23;;;;;;;10.05;4.43;;;22.90;99.90;;;;;;7386327;19;20161;-72
2023/09/07 08:45:59;;;;;;;8.27;4.15;;;22.90;99.90;;;;;;7388672;19;20134;-72
2023/09/07 08:48:27;;;;;;;7.40;3.85;;;23.00;99.90;;;;;;7389403;19;20130;-71
2023/09/07 08:50:54;;;;;;;3.72;3.40;;;23.00;99.90;;;;;;7389936;19;20550;-71
2023/09/07 08:53:21;;;;;;;7.53;4.05;;;23.00;99.90;;;;;;7387262;19;20222;-72
2023/09/07 08:55:47;;;;;;;5.60;3.65;;;22.90;99.90;;;;;;7381961;19;20135;-72
2023/09/07 08:58:13;;;;;;;5.25;3.75;;;23.10;99.90;;;;;;7386216;19;20158;-72
2023/09/07 09:00:43;;;;;;;8.55;4.40;;;23.10;99.90;;;;;;7386150;19;20155;-73
2023/09/07 09:03:10;;;;;;;5.80;4.40;;;23.20;99.90;;;;;;7388055;19;20662;-72
2023/09/07 09:05:39;;;;;;;9.00;4.45;;;23.20;99.90;;;;;;7384177;19;20169;-71
2023/09/07 09:08:05;;;;;;;3.67;3.25;;;23.20;99.90;;;;;;7387778;19;20142;-74
2023/09/07 09:10:31;;;;;;;4.88;4.10;;;23.40;99.90;;;;;;7378178;19;20130;-72
2023/09/07 09:12:59;;;;;;;7.18;4.30;;;23.50;99.90;;;;;;7382845;19;20595;-73
2023/09/07 09:15:26;;;;;;;4.68;4.15;;;23.60;99.90;;;;;;7386380;19;20143;-73
2023/09/07 09:17:53;;;;;;;4.72;3.90;;;23.70;99.90;;;;;;7389621;19;20145;-73
2023/09/07 09:20:28;;;;;;;5.13;3.55;;;23.60;99.90;;;;;;7389872;19;20131;-73
2023/09/07 09:22:56;;;;;;;4.28;3.80;;;23.70;99.90;;;;;;7389154;19;20145;-72
2023/09/07 09:25:22;;;;;;;5.07;3.53;;;23.90;99.90;;;;;;7387433;19;20623;-73
2023/09/07 09:27:49;;;;;;;6.40;3.33;;;24.10;99.90;;;;;;7388155;19;20142;-73
2023/09/07 09:30:16;;;;;;;5.57;4.18;;;24.40;99.90;;;;;;7386311;19;20152;-72
2023/09/07 09:32:44;;;;;;;5.25;4.30;;;24.40;99.90;;;;;;7386423;19;20138;-75
2023/09/07 09:35:10;;;;;;;4.38;3.88;;;24.30;99.90;;;;;;7384384;19;20127;-73
2023/09/07 09:37:48;;;;;;;5.30;3.97;;;24.30;99.90;;;;;;7385961;19;20147;-75
2023/09/07 09:40:16;;;;;;;4.60;4.20;;;24.40;99.90;;;;;;7385548;19;20138;-75
2023/09/07 09:42:43;;;;;;;7.63;4.93;;;24.60;99.90;;;;;;7385927;19;20620;-74
2023/09/07 09:45:10;;;;;;;4.05;3.65;;;24.70;99.90;;;;;;7388484;19;20142;-73
2023/09/07 09:47:41;;;;;;;4.68;3.70;;;24.70;99.90;;;;;;7387231;19;20172;-75
2023/09/07 09:50:11;;;;;;;4.38;3.78;;;24.80;99.90;;;;;;7389684;19;20146;-76
2023/09/07 09:52:38;;;;;;;4.57;3.72;;;24.80;99.90;;;;;;7387066;19;20150;-73
2023/09/07 09:55:07;;;;;;;4.72;4.00;;;24.90;99.90;;;;;;7383319;19;20146;-73
2023/09/07 09:57:35;;;;;;;5.85;4.20;;;25.00;99.90;;;;;;7384566;19;20134;-72
2023/09/07 10:00:07;;;;;;;5.30;4.47;;;24.80;99.90;;;;;;7386619;19;20162;-73
2023/09/07 10:02:38;;;;;;;7.45;4.60;;;24.60;99.90;;;;;;7383983;19;20139;-72
2023/09/07 10:05:07;;;;;;;8.80;5.07;;;24.40;99.90;;;;;;7385404;19;20185;-74
2023/09/07 10:07:52;;;;;;;8.93;4.60;;;24.30;99.90;;;;;;7385185;19;20138;-73
2023/09/07 10:10:19;;;;;;;4.22;3.83;;;24.30;99.90;;;;;;7386624;19;20131;-74
2023/09/07 10:12:55;;;;;;;7.00;4.32;;;24.30;99.90;;;;;;7385692;19;20481;-73
2023/09/07 10:15:25;;;;;;;5.10;4.30;;;24.30;99.90;;;;;;7386079;19;20163;-74
2023/09/07 10:18:02;;;;;;;8.07;4.50;;;24.40;99.90;;;;;;7384763;19;20146;-75
2023/09/07 10:20:27;;;;;;;5.22;4.18;;;24.50;99.90;;;;;;7385159;19;20161;-76
2023/09/07 10:23:03;;;;;;;4.68;4.10;;;24.60;99.90;;;;;;7385376;19;20134;-74
2023/09/07 10:25:31;;;;;;;5.40;3.72;;;24.60;99.90;;;;;;7387567;19;20591;-73
2023/09/07 10:27:59;;;;;;;7.10;4.30;;;24.70;99.90;;;;;;7384320;19;20592;-74
2023/09/07 10:30:25;;;;;;;6.00;4.03;;;24.80;99.90;;;;;;7383677;19;20158;-74
2023/09/07 10:32:51;;;;;;;4.18;3.75;;;24.90;99.90;;;;;;7384736;19;20130;-75
2023/09/07 10:35:21;;;;;;;6.35;4.40;;;24.80;99.90;;;;;;7383732;19;20134;-74
2023/09/07 10:37:48;;;;;;;4.70;4.05;;;24.80;99.90;;;;;;7384587;19;20134;-75
2023/09/07 10:40:19;;;;;;;7.10;4.53;;;24.70;99.90;;;;;;7383570;19;20226;-75
2023/09/07 10:42:45;;;;;;;5.75;4.50;;;24.70;99.90;;;;;;7383565;19;20141;-75
2023/09/07 10:45:15;;;;;;;4.80;4.25;;;24.80;99.90;;;;;;7384145;19;20238;-74
2023/09/07 10:47:42;;;;;;;5.40;4.38;;;24.90;99.90;;;;;;7386056;19;20142;-75
2023/09/07 10:50:10;;;;;;;4.32;3.88;;;24.90;99.90;;;;;;7383843;19;20154;-74
2023/09/07 10:52:36;;;;;;;7.57;4.32;;;25.00;99.90;;;;;;7385962;19;20568;-73
2023/09/07 10:55:02;;;;;;;5.90;4.25;;;25.20;99.90;;;;;;7391089;19;20137;-74
2023/09/07 10:57:28;;;;;;;5.72;4.45;;;25.30;99.90;;;;;;7388794;19;20139;-73
2023/09/07 10:59:55;;;;;;;5.32;3.92;;;25.40;99.90;;;;;;7389928;19;20218;-74
2023/09/07 11:02:20;;;;;;;4.43;4.03;;;25.50;99.90;;;;;;7388717;19;20133;-74
2023/09/07 11:04:46;;;;;;;5.43;4.10;;;25.50;99.90;;;;;;7390812;19;20151;-74
2023/09/07 11:07:12;;;;;;;4.85;3.78;;;25.50;99.90;;;;;;7391371;19;20135;-74
2023/09/07 11:09:42;;;;;;;7.60;4.63;;;25.50;99.90;;;;;;7390181;19;20471;-75
2023/09/07 11:12:11;;;;;;;4.55;3.80;;;25.60;99.90;;;;;;7390907;19;20164;-75
2023/09/07 11:14:39;;;;;;;6.72;3.90;;;25.50;99.90;;;;;;7390448;19;20127;-74
2023/09/07 11:17:05;;;;;;;4.47;3.83;;;25.50;99.90;;;;;;7391023;19;20137;-77
2023/09/07 11:19:33;;;;;;;9.20;4.07;;;25.60;99.90;;;;;;7391412;19;20212;-74
2023/09/07 11:21:59;;;;;;;7.82;4.55;;;25.60;99.90;;;;;;7390252;19;20146;-74
2023/09/07 11:24:26;;;;;;;4.60;4.15;;;25.60;99.90;;;;;;7392468;19;20135;-74
2023/09/07 11:26:51;;;;;;;5.07;4.13;;;25.60;99.90;;;;;;7389733;19;20166;-74
2023/09/07 11:29:18;;;;;;;6.72;4.32;;;25.60;99.90;;;;;;7393948;19;20190;-73
2023/09/07 11:31:47;;;;;;;5.90;4.13;;;25.70;99.90;;;;;;7391690;19;20273;-74
2023/09/07 11:34:14;;;;;;;8.25;6.70;;;25.90;99.90;;;;;;7388301;19;20142;-74
2023/09/07 11:36:41;;;;;;;5.63;4.68;;;26.10;99.90;;;;;;7391233;19;20134;-75
2023/09/07 11:39:16;;;;;;;5.93;3.97;;;26.30;99.90;;;;;;7390163;19;20222;-75
2023/09/07 11:41:43;;;;;;;4.38;3.85;;;26.40;99.90;;;;;;7392658;19;20133;-74
2023/09/07 11:44:09;;;;;;;5.25;4.00;;;26.30;99.90;;;;;;7390478;19;20426;-74
2023/09/07 11:46:36;;;;;;;4.53;3.70;;;26.30;99.90;;;;;;7390850;19;20142;-74
2023/09/07 11:49:02;;;;;;;6.07;4.05;;;26.30;99.90;;;;;;7389235;19;20149;-74
2023/09/07 11:51:27;;;;;;;5.05;3.72;;;26.40;99.90;;;;;;7389031;19;20571;-74
2023/09/07 11:53:53;;;;;;;4.78;3.30;;;26.50;99.90;;;;;;7388792;19;20567;-73
2023/09/07 11:56:19;;;;;;;4.03;3.58;;;26.50;99.90;;;;;;7390142;19;20584;-74
2023/09/07 11:58:45;;;;;;;7.07;4.85;;;26.50;99.90;;;;;;7391780;19;20138;-74
2023/09/07 12:01:10;;;;;;;4.70;4.15;;;26.50;99.90;;;;;;7387421;19;20138;-74
2023/09/07 12:03:36;;;;;;;5.57;4.50;;;26.70;99.90;;;;;;7388429;19;20209;-75
2023/09/07 12:06:02;;;;;;;4.55;3.70;;;26.70;99.90;;;;;;7390819;19;20599;-73
2023/09/07 12:08:28;;;;;;;3.50;3.20;;;26.70;99.90;;;;;;7388704;19;20162;-74
2023/09/07 12:10:54;;;;;;;4.18;3.25;;;26.70;99.90;;;;;;7389364;19;20158;-73
2023/09/07 12:13:19;;;;;;;5.82;3.83;;;26.70;99.90;;;;;;7389686;19;20134;-75
2023/09/07 12:15:45;;;;;;;4.68;4.05;;;26.90;99.90;;;;;;7390042;19;20138;-74
2023/09/07 12:18:11;;;;;;;5.07;3.70;;;27.00;99.90;;;;;;7389502;19;20166;-75
2023/09/07 12:20:37;;;;;;;4.65;3.50;;;27.10;99.90;;;;;;7389508;19;20190;-74
2023/09/07 12:23:03;;;;;;;4.30;3.72;;;27.10;99.90;;;;;;7387888;19;20142;-75
2023/09/07 12:25:29;;;;;;;5.55;3.83;;;27.20;99.90;;;;;;7391756;19;20157;-75
2023/09/07 12:27:56;;;;;;;6.78;2.97;;;27.20;99.90;;;;;;7389464;19;20587;-75
2023/09/07 12:30:23;;;;;;;5.20;3.55;;;27.20;99.90;;;;;;7388558;19;20139;-73
2023/09/07 12:32:50;;;;;;;3.70;3.20;;;27.30;99.90;;;;;;7385151;19;20147;-73
2023/09/07 12:35:17;;;;;;;4.78;3.53;;;27.20;99.90;;;;;;7387625;19;20566;-77
2023/09/07 12:37:42;;;;;;;4.20;3.65;;;27.30;99.90;;;;;;7387302;19;20154;-74
2023/09/07 12:40:15;;;;;;;4.10;3.70;;;27.30;99.90;;;;;;7387956;19;20139;-75
2023/09/07 12:42:45;;;;;;;6.22;3.58;;;27.50;99.90;;;;;;7389726;19;20147;-75